createdAt,value
2018-12-21T00:00:23.677Z,7.50
2018-12-21T00:02:50.876Z,7.60
2018-12-21T00:05:18.209Z,7.60
2018-12-21T00:07:45.381Z,7.70
2018-12-21T00:10:17.001Z,7.70
2018-12-21T00:12:44.163Z,7.70
2018-12-21T00:15:11.476Z,7.70
2018-12-21T00:17:38.771Z,7.70
2018-12-21T00:20:06.781Z,7.60
2018-12-21T00:22:33.943Z,7.60
2018-12-21T00:25:01.247Z,7.70
2018-12-21T00:27:28.585Z,7.60
2018-12-21T00:29:55.814Z,7.60
2018-12-21T00:32:28.756Z,7.60
2018-12-21T00:35:01.647Z,7.60
2018-12-21T00:37:34.719Z,7.70
2018-12-21T00:40:07.529Z,7.60
2018-12-21T00:45:41.292Z,7.60
2018-12-21T00:48:08.452Z,7.60
2018-12-21T00:50:36.726Z,7.60
2018-12-21T00:53:03.888Z,7.70
2018-12-21T00:55:31.183Z,7.60
2018-12-21T00:57:58.484Z,7.60
2018-12-21T01:00:26.006Z,7.60
2018-12-21T01:02:53.260Z,7.60
2018-12-21T01:05:21.544Z,7.60
2018-12-21T01:07:48.952Z,7.50
2018-12-21T01:10:16.277Z,7.40
2018-12-21T01:12:43.463Z,7.40
2018-12-21T01:15:10.760Z,7.30
2018-12-21T01:17:37.986Z,7.20
2018-12-21T01:20:05.964Z,7.10
2018-12-21T01:22:33.176Z,7.10
2018-12-21T01:25:00.462Z,7.00
2018-12-21T01:27:27.686Z,6.90
2018-12-21T01:29:58.855Z,6.90
2018-12-21T01:32:26.204Z,6.80
2018-12-21T01:34:53.510Z,6.80
2018-12-21T01:37:20.705Z,6.70
2018-12-21T01:39:48.103Z,6.70
2018-12-21T01:42:15.274Z,6.60
2018-12-21T01:44:42.462Z,6.60
2018-12-21T01:47:10.759Z,6.50
2018-12-21T01:49:37.955Z,6.50
2018-12-21T01:52:05.253Z,6.40
2018-12-21T01:54:32.442Z,6.40
2018-12-21T01:56:59.668Z,6.40
2018-12-21T01:59:26.847Z,6.40
2018-12-21T02:01:55.104Z,6.40
2018-12-21T02:04:22.296Z,6.30
2018-12-21T02:06:51.592Z,6.30
2018-12-21T02:09:18.758Z,6.30
2018-12-21T02:11:46.089Z,6.30
2018-12-21T02:14:13.265Z,6.30
2018-12-21T02:16:44.362Z,6.30
2018-12-21T02:19:11.549Z,6.30
2018-12-21T02:21:38.862Z,6.30
2018-12-21T02:24:06.057Z,6.30
2018-12-21T02:26:35.306Z,6.30
2018-12-21T02:29:02.522Z,6.30
2018-12-21T02:31:29.818Z,6.30
2018-12-21T02:33:57.006Z,6.30
2018-12-21T02:36:24.215Z,6.30
2018-12-21T02:38:51.437Z,6.30
2018-12-21T02:41:19.712Z,6.30
2018-12-21T02:43:46.878Z,6.40
2018-12-21T02:46:15.167Z,6.40
2018-12-21T02:48:42.563Z,6.40
2018-12-21T02:51:09.732Z,6.40
2018-12-21T02:53:40.686Z,6.50
2018-12-21T02:56:08.109Z,6.50
2018-12-21T02:58:35.302Z,6.60
2018-12-21T03:01:02.461Z,6.60
2018-12-21T03:03:29.731Z,6.60
2018-12-21T03:05:56.916Z,6.70
2018-12-21T03:08:25.157Z,6.70
2018-12-21T03:10:52.356Z,6.70
2018-12-21T03:13:19.629Z,6.80
2018-12-21T03:15:46.851Z,6.90
2018-12-21T03:18:14.036Z,6.90
2018-12-21T03:20:41.243Z,6.90
2018-12-21T03:23:12.044Z,6.90
2018-12-21T03:25:39.243Z,6.90
2018-12-21T03:28:06.517Z,6.90
2018-12-21T03:30:33.718Z,6.90
2018-12-21T03:33:00.917Z,6.90
2018-12-21T03:35:28.224Z,6.90
2018-12-21T03:37:55.460Z,7.00
2018-12-21T03:40:22.636Z,7.00
2018-12-21T03:42:54.070Z,7.00
2018-12-21T03:45:21.277Z,7.00
2018-12-21T03:47:48.563Z,7.00
2018-12-21T03:50:15.841Z,7.00
2018-12-21T03:52:43.010Z,7.00
2018-12-21T03:55:12.267Z,7.10
2018-12-21T03:57:39.430Z,7.10
2018-12-21T04:00:06.729Z,7.10
2018-12-21T04:02:33.953Z,7.10
2018-12-21T04:05:03.235Z,7.10
2018-12-21T04:07:30.510Z,7.10
2018-12-21T04:10:00.325Z,7.10
2018-12-21T04:12:27.638Z,7.20
2018-12-21T04:14:54.889Z,7.20
2018-12-21T04:17:22.047Z,7.20
2018-12-21T04:19:49.398Z,7.20
2018-12-21T04:22:16.560Z,7.20
2018-12-21T04:24:43.788Z,7.10
2018-12-21T04:27:10.954Z,7.10
2018-12-21T04:29:38.296Z,7.20
2018-12-21T04:32:05.498Z,7.20
2018-12-21T04:34:32.784Z,7.20
2018-12-21T04:36:59.984Z,7.20
2018-12-21T04:39:27.154Z,7.20
2018-12-21T04:41:54.343Z,7.20
2018-12-21T04:44:21.500Z,7.20
2018-12-21T04:46:48.695Z,7.10
2018-12-21T04:49:15.865Z,7.10
2018-12-21T04:51:43.064Z,7.10
2018-12-21T04:54:10.282Z,7.10
2018-12-21T04:56:37.503Z,7.10
2018-12-21T04:59:04.702Z,7.10
2018-12-21T05:01:31.901Z,7.10
2018-12-21T05:03:59.127Z,7.10
2018-12-21T05:06:26.430Z,7.10
2018-12-21T05:08:53.663Z,7.10
2018-12-21T05:11:20.859Z,7.10
2018-12-21T05:13:48.120Z,7.10
2018-12-21T05:16:15.358Z,7.10
2018-12-21T05:18:42.586Z,7.00
2018-12-21T05:21:09.752Z,7.00
2018-12-21T05:23:37.014Z,7.00
2018-12-21T05:26:04.193Z,6.90
2018-12-21T05:28:34.893Z,6.90
2018-12-21T05:31:02.082Z,6.90
2018-12-21T05:33:30.322Z,6.90
2018-12-21T05:35:57.512Z,6.90
2018-12-21T05:38:25.535Z,6.90
2018-12-21T05:40:52.788Z,6.90
2018-12-21T05:43:20.603Z,6.90
2018-12-21T05:45:47.804Z,6.90
2018-12-21T05:48:16.345Z,7.00
2018-12-21T05:50:43.634Z,7.00
2018-12-21T05:53:10.800Z,7.00
2018-12-21T05:55:38.413Z,7.00
2018-12-21T05:58:05.595Z,7.10
2018-12-21T06:00:35.251Z,7.10
2018-12-21T06:03:04.316Z,7.10
2018-12-21T06:05:32.403Z,7.10
2018-12-21T06:07:59.629Z,7.10
2018-12-21T06:10:26.983Z,7.10
2018-12-21T06:12:54.746Z,7.10
2018-12-21T06:15:22.854Z,7.10
2018-12-21T06:17:51.309Z,7.10
2018-12-21T06:20:20.194Z,7.10
2018-12-21T06:22:48.051Z,7.10
2018-12-21T06:25:15.284Z,7.10
2018-12-21T06:27:43.355Z,7.10
2018-12-21T06:30:10.602Z,7.20
2018-12-21T06:32:40.100Z,7.20
2018-12-21T06:35:07.385Z,7.20
2018-12-21T06:37:34.572Z,7.20
2018-12-21T06:40:01.807Z,7.20
2018-12-21T06:42:29.050Z,7.20
2018-12-21T06:44:56.240Z,7.20
2018-12-21T06:47:23.396Z,7.20
2018-12-21T06:49:50.620Z,7.20
2018-12-21T06:52:17.841Z,7.20
2018-12-21T06:54:45.071Z,7.20
2018-12-21T06:57:12.284Z,7.20
2018-12-21T06:59:39.498Z,7.20
2018-12-21T07:02:06.690Z,7.20
2018-12-21T07:04:37.116Z,7.20
2018-12-21T07:07:04.285Z,7.20
2018-12-21T07:09:33.496Z,7.20
2018-12-21T07:12:00.711Z,7.20
2018-12-21T07:14:33.706Z,7.20
2018-12-21T07:17:00.896Z,7.10
2018-12-21T07:19:31.960Z,7.10
2018-12-21T07:21:59.152Z,7.10
2018-12-21T07:24:26.357Z,7.10
2018-12-21T07:26:53.570Z,7.00
2018-12-21T07:29:22.813Z,7.00
2018-12-21T07:31:50.041Z,7.00
2018-12-21T07:34:17.244Z,7.00
2018-12-21T07:36:44.424Z,7.00
2018-12-21T07:39:11.620Z,7.00
2018-12-21T07:41:38.776Z,7.00
2018-12-21T07:44:06.050Z,7.00
2018-12-21T07:46:33.253Z,7.00
2018-12-21T07:49:00.443Z,7.10
2018-12-21T07:51:27.693Z,7.10
2018-12-21T07:53:54.958Z,7.10
2018-12-21T07:56:22.201Z,7.10
2018-12-21T07:58:56.908Z,7.10
2018-12-21T08:01:18.716Z,7.20
2018-12-21T08:03:45.931Z,7.20
2018-12-21T08:06:13.148Z,7.20
2018-12-21T08:08:44.267Z,7.20
2018-12-21T08:11:11.454Z,7.30
2018-12-21T08:13:38.688Z,7.30
2018-12-21T08:16:05.997Z,7.30
2018-12-21T08:18:34.180Z,7.20
2018-12-21T08:21:01.364Z,7.30
2018-12-21T08:23:28.610Z,7.30
2018-12-21T08:25:55.786Z,7.30
2018-12-21T08:28:23.191Z,7.40
2018-12-21T08:30:50.384Z,7.40
2018-12-21T08:33:18.735Z,7.40
2018-12-21T08:35:45.946Z,7.40
2018-12-21T08:38:13.235Z,7.50
2018-12-21T08:40:40.396Z,7.40
2018-12-21T08:43:07.760Z,7.40
2018-12-21T08:45:38.649Z,7.40
2018-12-21T08:48:05.836Z,7.40
2018-12-21T08:50:36.639Z,7.50
2018-12-21T08:53:03.832Z,7.40
2018-12-21T08:55:31.172Z,7.40
2018-12-21T08:57:58.360Z,7.40
2018-12-21T09:00:25.659Z,7.40
2018-12-21T09:02:52.905Z,7.40
2018-12-21T09:05:20.174Z,7.40
2018-12-21T09:07:47.350Z,7.40
2018-12-21T09:10:14.800Z,7.40
2018-12-21T09:12:41.992Z,7.40
2018-12-21T09:15:15.215Z,7.40
2018-12-21T09:17:42.399Z,7.40
2018-12-21T09:20:10.309Z,7.40
2018-12-21T09:22:37.530Z,7.40
2018-12-21T09:25:05.876Z,7.40
2018-12-21T09:27:33.065Z,7.40
2018-12-21T09:30:01.430Z,7.50
2018-12-21T09:32:28.751Z,7.50
2018-12-21T09:35:00.580Z,7.50
2018-12-21T09:37:27.782Z,7.50
2018-12-21T09:39:56.001Z,7.40
2018-12-21T09:42:23.194Z,7.40
2018-12-21T09:44:52.614Z,7.50
2018-12-21T09:47:19.707Z,7.50
2018-12-21T09:49:46.936Z,7.50
2018-12-21T09:52:14.259Z,7.50
2018-12-21T09:54:41.460Z,7.50
2018-12-21T09:57:08.737Z,7.50
2018-12-21T09:59:35.904Z,7.50
2018-12-21T10:02:03.416Z,7.60
2018-12-21T10:04:30.612Z,7.60
2018-12-21T10:06:57.861Z,7.60
2018-12-21T10:09:25.107Z,7.60
2018-12-21T10:11:52.365Z,7.60
2018-12-21T10:14:19.586Z,7.60
2018-12-21T10:16:46.874Z,7.60
2018-12-21T10:19:14.113Z,7.60
2018-12-21T10:21:41.366Z,7.50
2018-12-21T10:24:08.604Z,7.60
2018-12-21T10:26:35.892Z,7.50
2018-12-21T10:29:03.066Z,7.50
2018-12-21T10:31:30.358Z,7.50
2018-12-21T10:33:57.570Z,7.50
2018-12-21T10:36:24.852Z,7.60
2018-12-21T10:38:52.007Z,7.60
2018-12-21T10:41:19.264Z,7.60
2018-12-21T10:43:46.431Z,7.50
2018-12-21T10:46:13.642Z,7.60
2018-12-21T10:48:40.980Z,7.60
2018-12-21T10:51:08.149Z,7.60
2018-12-21T10:53:35.420Z,7.60
2018-12-21T10:56:02.634Z,7.60
2018-12-21T10:58:29.912Z,7.60
2018-12-21T11:00:57.142Z,7.60
2018-12-21T11:03:33.016Z,7.60
2018-12-21T11:06:00.212Z,7.70
2018-12-21T11:08:27.476Z,7.70
2018-12-21T11:10:54.649Z,7.70
2018-12-21T11:13:25.540Z,7.80
2018-12-21T11:15:52.737Z,7.80
2018-12-21T11:18:20.081Z,7.80
2018-12-21T11:20:47.259Z,7.80
2018-12-21T11:23:14.561Z,7.80
2018-12-21T11:25:41.755Z,7.80
2018-12-21T11:28:25.149Z,7.80
2018-12-21T11:30:46.729Z,7.80
2018-12-21T11:33:13.995Z,7.80
2018-12-21T11:35:41.188Z,7.80
2018-12-21T11:38:08.528Z,7.80
2018-12-21T11:40:35.752Z,7.80
2018-12-21T11:43:02.988Z,7.80
2018-12-21T11:45:30.705Z,7.80
2018-12-21T11:47:57.902Z,7.80
2018-12-21T11:50:25.184Z,7.80
2018-12-21T11:52:52.382Z,7.80
2018-12-21T11:55:23.535Z,7.80
2018-12-21T11:57:50.824Z,7.80
2018-12-21T12:00:18.064Z,7.90
2018-12-21T12:02:45.233Z,7.90
2018-12-21T12:05:12.466Z,8.00
2018-12-21T12:07:39.630Z,8.00
2018-12-21T12:10:07.390Z,8.00
2018-12-21T12:12:34.555Z,7.90
2018-12-21T12:15:01.833Z,7.90
2018-12-21T12:17:29.007Z,7.90
2018-12-21T12:19:56.280Z,7.90
2018-12-21T12:22:23.477Z,8.00
2018-12-21T12:24:55.428Z,7.90
2018-12-21T12:27:22.766Z,8.00
2018-12-21T12:29:49.977Z,8.00
2018-12-21T12:32:17.170Z,8.00
2018-12-21T12:34:44.373Z,8.00
2018-12-21T12:37:11.607Z,8.00
2018-12-21T12:39:39.841Z,8.10
2018-12-21T12:42:07.065Z,8.20
2018-12-21T12:44:34.299Z,8.20
2018-12-21T12:47:05.149Z,8.20
2018-12-21T12:49:32.384Z,8.30
2018-12-21T12:51:59.655Z,8.30
2018-12-21T12:54:26.854Z,8.40
2018-12-21T12:56:54.072Z,8.40
2018-12-21T12:59:21.287Z,8.40
2018-12-21T13:01:48.625Z,8.50
2018-12-21T13:04:16.404Z,8.50
2018-12-21T13:06:43.669Z,8.50
2018-12-21T13:09:10.855Z,8.60
2018-12-21T13:11:38.084Z,8.70
2018-12-21T13:14:05.277Z,8.70
2018-12-21T13:16:32.474Z,8.80
2018-12-21T13:18:59.699Z,8.90
2018-12-21T13:21:26.878Z,9.00
2018-12-21T13:23:54.065Z,9.00
2018-12-21T13:26:21.306Z,9.00
2018-12-21T13:28:48.518Z,9.10
2018-12-21T13:31:15.773Z,9.10
2018-12-21T13:33:42.976Z,9.20
2018-12-21T13:36:10.203Z,9.30
2018-12-21T13:38:37.403Z,9.30
2018-12-21T13:41:08.264Z,9.40
2018-12-21T13:43:35.462Z,9.50
2018-12-21T13:46:02.702Z,9.50
2018-12-21T13:48:29.914Z,9.60
2018-12-21T13:51:01.098Z,9.80
2018-12-21T13:53:28.285Z,9.90
2018-12-21T13:55:55.514Z,10.00
2018-12-21T13:58:22.688Z,10.10
2018-12-21T14:00:53.550Z,10.20
2018-12-21T14:03:20.755Z,10.30
2018-12-21T14:05:47.951Z,10.40
2018-12-21T14:08:15.154Z,10.50
2018-12-21T14:10:45.631Z,10.60
2018-12-21T14:13:12.851Z,10.70
2018-12-21T14:15:40.040Z,10.70
2018-12-21T14:18:07.238Z,10.90
2018-12-21T14:20:34.432Z,10.90
2018-12-21T14:23:01.816Z,11.00
2018-12-21T14:25:29.341Z,11.00
2018-12-21T14:28:00.263Z,11.10
2018-12-21T14:30:27.493Z,11.10
2018-12-21T14:32:54.750Z,11.20
2018-12-21T14:35:21.982Z,11.20
2018-12-21T14:37:49.234Z,11.30
2018-12-21T14:40:16.399Z,11.30
2018-12-21T14:42:43.652Z,11.30
2018-12-21T14:45:10.944Z,11.40
2018-12-21T14:47:38.254Z,11.40
2018-12-21T14:50:06.742Z,11.50
2018-12-21T14:52:34.031Z,11.50
2018-12-21T14:55:01.384Z,11.50
2018-12-21T14:57:28.730Z,11.50
2018-12-21T14:59:55.945Z,11.60
2018-12-21T15:02:23.141Z,11.70
2018-12-21T15:04:50.354Z,11.70
2018-12-21T15:07:17.540Z,11.70
2018-12-21T15:09:44.743Z,11.80
2018-12-21T15:12:11.974Z,11.80
2018-12-21T15:14:39.252Z,11.80
2018-12-21T15:17:06.565Z,11.90
2018-12-21T15:19:33.818Z,11.90
2018-12-21T15:22:00.993Z,11.90
2018-12-21T15:24:28.246Z,12.00
2018-12-21T15:26:55.427Z,12.10
2018-12-21T15:29:23.695Z,12.10
2018-12-21T15:31:50.891Z,12.10
2018-12-21T15:34:21.250Z,12.10
2018-12-21T15:36:48.422Z,12.00
2018-12-21T15:39:19.336Z,12.20
2018-12-21T15:41:46.504Z,12.10
2018-12-21T15:44:13.850Z,12.20
2018-12-21T15:46:42.072Z,12.20
2018-12-21T15:49:09.244Z,12.30
2018-12-21T15:51:36.545Z,12.30
2018-12-21T15:54:03.772Z,12.20
2018-12-21T15:56:30.997Z,12.30
2018-12-21T15:58:58.221Z,12.30
2018-12-21T16:01:25.421Z,12.30
2018-12-21T16:03:52.666Z,12.30
2018-12-21T16:06:19.951Z,12.40
2018-12-21T16:08:47.124Z,12.40
2018-12-21T16:11:14.350Z,12.40
2018-12-21T16:13:41.521Z,12.40
2018-12-21T16:16:08.845Z,12.40
2018-12-21T16:18:36.047Z,12.40
2018-12-21T16:21:03.345Z,12.40
2018-12-21T16:23:30.626Z,12.40
2018-12-21T16:26:03.480Z,12.40
2018-12-21T16:28:27.084Z,12.40
2018-12-21T16:30:54.491Z,12.30
2018-12-21T16:33:21.701Z,12.40
2018-12-21T16:35:48.894Z,12.30
2018-12-21T16:38:16.253Z,12.30
2018-12-21T16:40:44.512Z,12.30
2018-12-21T16:43:11.711Z,12.30
2018-12-21T16:45:38.918Z,12.20
2018-12-21T16:48:06.151Z,12.20
2018-12-21T16:50:33.346Z,12.20
2018-12-21T16:53:00.577Z,12.20
2018-12-21T16:55:27.819Z,12.20
2018-12-21T16:57:55.048Z,12.20
2018-12-21T17:00:22.277Z,12.10
2018-12-21T17:02:49.457Z,12.10
2018-12-21T17:05:16.657Z,12.10
2018-12-21T17:07:43.864Z,12.10
2018-12-21T17:10:11.299Z,12.10
2018-12-21T17:12:38.470Z,12.00
2018-12-21T17:15:07.460Z,12.00
2018-12-21T17:17:34.685Z,12.10
2018-12-21T17:20:01.860Z,12.10
2018-12-21T17:22:32.818Z,12.00
2018-12-21T17:25:00.009Z,12.00
2018-12-21T17:27:27.228Z,12.00
2018-12-21T17:29:54.440Z,11.90
2018-12-21T17:32:21.637Z,12.00
2018-12-21T17:34:48.832Z,12.00
2018-12-21T17:37:16.007Z,11.90
2018-12-21T17:39:43.209Z,11.90
2018-12-21T17:42:10.417Z,11.90
2018-12-21T17:44:37.776Z,11.90
2018-12-21T17:47:04.976Z,11.80
2018-12-21T17:49:32.195Z,11.70
2018-12-21T17:52:01.830Z,11.60
2018-12-21T17:54:29.344Z,11.50
2018-12-21T17:56:56.707Z,11.40
2018-12-21T17:59:23.881Z,11.40
2018-12-21T18:01:52.241Z,11.30
2018-12-21T18:04:19.458Z,11.30
2018-12-21T18:06:46.709Z,11.20
2018-12-21T18:09:13.905Z,11.20
2018-12-21T18:11:41.219Z,11.20
2018-12-21T18:14:08.440Z,11.10
2018-12-21T18:16:35.718Z,11.00
2018-12-21T18:19:02.991Z,11.00
2018-12-21T18:21:32.258Z,10.90
2018-12-21T18:23:59.448Z,10.80
2018-12-21T18:26:38.577Z,10.80
2018-12-21T18:29:01.734Z,10.60
2018-12-21T18:31:30.247Z,10.60
2018-12-21T18:33:57.479Z,10.60
2018-12-21T18:36:25.901Z,10.60
2018-12-21T18:38:53.100Z,10.60
2018-12-21T18:41:20.322Z,10.50
2018-12-21T18:43:47.565Z,10.50
2018-12-21T18:46:14.832Z,10.50
2018-12-21T18:48:42.129Z,10.60
2018-12-21T18:51:09.313Z,10.50
2018-12-21T18:53:36.736Z,10.50
2018-12-21T18:56:04.207Z,10.40
2018-12-21T18:58:31.492Z,10.40
2018-12-21T19:00:58.684Z,10.40
2018-12-21T19:03:29.243Z,10.30
2018-12-21T19:05:56.543Z,10.30
2018-12-21T19:08:23.814Z,10.10
2018-12-21T19:10:51.006Z,10.00
2018-12-21T19:13:18.319Z,10.00
2018-12-21T19:15:45.545Z,10.00
2018-12-21T19:18:12.877Z,9.90
2018-12-21T19:20:40.069Z,9.90
2018-12-21T19:23:07.294Z,9.80
2018-12-21T19:25:34.488Z,9.80
2018-12-21T19:28:01.822Z,9.80
2018-12-21T19:30:28.998Z,9.70
2018-12-21T19:32:57.497Z,9.80
2018-12-21T19:35:27.876Z,9.80
2018-12-21T19:37:59.654Z,9.80
2018-12-21T19:40:27.485Z,9.80
2018-12-21T19:42:59.051Z,9.90
2018-12-21T19:45:26.272Z,9.90
2018-12-21T19:47:53.463Z,9.90
2018-12-21T19:50:22.768Z,10.00
2018-12-21T19:52:49.937Z,10.10
2018-12-21T19:55:19.388Z,10.20
2018-12-21T19:57:46.604Z,10.20
2018-12-21T20:00:14.101Z,10.20
2018-12-21T20:02:41.300Z,10.20
2018-12-21T20:05:08.627Z,10.30
2018-12-21T20:07:35.825Z,10.30
2018-12-21T20:10:05.532Z,10.30
2018-12-21T20:12:32.731Z,10.40
2018-12-21T20:15:00.081Z,10.30
2018-12-21T20:17:27.422Z,10.30
2018-12-21T20:19:54.662Z,10.30
2018-12-21T20:22:21.842Z,10.30
2018-12-21T20:24:49.129Z,10.30
2018-12-21T20:27:16.329Z,10.30
2018-12-21T20:29:44.007Z,10.30
2018-12-21T20:32:11.203Z,10.30
2018-12-21T20:34:38.849Z,10.30
2018-12-21T20:37:06.163Z,10.40
2018-12-21T20:39:33.814Z,10.40
2018-12-21T20:42:00.986Z,10.30
2018-12-21T20:44:28.238Z,10.30
2018-12-21T20:46:55.408Z,10.30
2018-12-21T20:49:22.719Z,10.20
2018-12-21T20:51:50.193Z,10.20
2018-12-21T20:54:17.389Z,10.30
2018-12-21T20:56:44.665Z,10.30
2018-12-21T20:59:12.021Z,10.30
2018-12-21T21:01:39.659Z,10.30
2018-12-21T21:04:10.248Z,10.30
2018-12-21T21:06:37.503Z,10.30
2018-12-21T21:09:05.212Z,10.30
2018-12-21T21:11:33.262Z,10.30
2018-12-21T21:14:00.490Z,10.30
2018-12-21T21:16:27.848Z,10.30
2018-12-21T21:18:55.029Z,10.30
2018-12-21T21:21:23.347Z,10.30
2018-12-21T21:23:50.568Z,10.20
2018-12-21T21:26:24.147Z,10.10
2018-12-21T21:28:51.347Z,10.10
2018-12-21T21:31:18.610Z,10.10
2018-12-21T21:33:46.493Z,10.10
2018-12-21T21:36:13.712Z,10.00
2018-12-21T21:38:40.910Z,9.90
2018-12-21T21:41:08.154Z,9.80
2018-12-21T21:43:35.336Z,9.80
2018-12-21T21:46:04.533Z,9.80
2018-12-21T21:48:32.747Z,9.60
2018-12-21T21:51:00.603Z,9.50
2018-12-21T21:53:31.649Z,9.50
2018-12-21T21:55:58.873Z,9.40
2018-12-21T21:58:26.144Z,9.40
2018-12-21T22:00:53.365Z,9.30
2018-12-21T22:03:21.627Z,9.30
2018-12-21T22:05:48.821Z,9.20
2018-12-21T22:08:16.074Z,9.20
2018-12-21T22:10:43.284Z,9.20
2018-12-21T22:13:10.510Z,9.20
2018-12-21T22:15:37.682Z,9.10
2018-12-21T22:18:04.899Z,9.00
2018-12-21T22:20:32.055Z,8.90
2018-12-21T22:22:59.300Z,8.80
2018-12-21T22:25:26.476Z,8.80
2018-12-21T22:27:54.835Z,8.80
2018-12-21T22:30:22.018Z,8.80
2018-12-21T22:32:49.368Z,8.80
2018-12-21T22:35:16.540Z,8.80
2018-12-21T22:37:47.435Z,8.70
2018-12-21T22:40:14.649Z,8.70
2018-12-21T22:42:41.928Z,8.70
2018-12-21T22:45:09.118Z,8.70
2018-12-21T22:47:36.325Z,8.60
2018-12-21T22:50:04.204Z,8.60
2018-12-21T22:52:31.373Z,8.60
2018-12-21T22:54:58.574Z,8.60
2018-12-21T22:57:25.767Z,8.60
2018-12-21T22:59:53.009Z,8.50
2018-12-21T23:02:20.208Z,8.50
2018-12-21T23:04:51.831Z,8.50
2018-12-21T23:07:19.002Z,8.50
2018-12-21T23:09:46.177Z,8.50
2018-12-21T23:12:13.374Z,8.50
2018-12-21T23:14:40.611Z,8.50
2018-12-21T23:17:07.821Z,8.40
2018-12-21T23:19:35.126Z,8.50
2018-12-21T23:22:02.326Z,8.50
2018-12-21T23:24:33.369Z,8.50
2018-12-21T23:27:00.581Z,8.50
2018-12-21T23:29:32.434Z,8.50
2018-12-21T23:31:59.651Z,8.50
2018-12-21T23:34:26.915Z,8.50
2018-12-21T23:36:54.088Z,8.50
2018-12-21T23:39:21.321Z,8.50
2018-12-21T23:41:48.494Z,8.50
2018-12-21T23:44:15.720Z,8.50
2018-12-21T23:46:42.908Z,8.50
2018-12-21T23:49:10.235Z,8.50
2018-12-21T23:51:37.449Z,8.40
2018-12-21T23:54:04.610Z,8.40
2018-12-21T23:56:31.877Z,8.40
2018-12-21T23:58:59.081Z,8.40
